Time;durP1;ratioP1;P1;durP2;ratioP2;P2;SDS_P1;SDS_P2;PMS_P1;PMS_P2;Temp;Humidity;BMP_temperature;BMP_pressure;BME280_temperature;BME280_humidity;BME280_pressure;Samples;Min_cycle;Max_cycle;Signal;HPM_P1;HPM_P2
2022/07/20 00:00:06;;;;;;;6.80;4.90;;;;;;;24.82;39.03;98066.56;5054928;28;20322;-70
2022/07/20 00:02:34;;;;;;;8.70;4.70;;;;;;;24.82;38.61;98063.84;5055192;28;20209;-70
2022/07/20 00:05:01;;;;;;;6.85;5.28;;;;;;;24.82;39.05;98061.13;5055238;28;20228;-70
2022/07/20 00:07:27;;;;;;;6.45;5.28;;;;;;;24.84;38.71;98064.34;5054869;28;20562;-70
2022/07/20 00:12:38;;;;;;;10.50;5.70;;;;;;;24.79;39.17;98067.97;5055047;28;20208;-70
2022/07/20 00:15:05;;;;;;;9.38;5.22;;;;;;;24.77;39.31;98066.69;5054699;28;20607;-70
2022/07/20 00:17:32;;;;;;;5.32;4.80;;;;;;;24.68;39.18;98072.06;5054731;28;20263;-70
2022/07/20 00:19:58;;;;;;;6.35;5.45;;;;;;;24.60;39.36;98059.22;5054868;28;20229;-70
2022/07/20 00:22:25;;;;;;;9.15;5.78;;;;;;;24.52;40.09;98072.72;5055088;28;20208;-70
2022/07/20 00:24:52;;;;;;;8.90;5.47;;;;;;;24.51;39.89;98062.97;5054553;28;20205;-70
2022/07/20 00:27:18;;;;;;;6.82;5.30;;;;;;;24.45;40.55;98061.44;5054751;28;20300;-70
2022/07/20 00:29:45;;;;;;;8.63;5.65;;;;;;;24.42;40.02;98062.88;5054374;28;20750;-70
2022/07/20 00:32:12;;;;;;;9.68;5.72;;;;;;;24.35;40.39;98057.06;5054276;28;20212;-70
2022/07/20 00:34:38;;;;;;;6.65;4.90;;;;;;;24.33;40.50;98058.50;5054608;28;20233;-70
2022/07/20 00:37:05;;;;;;;8.13;5.68;;;;;;;24.27;41.18;98054.28;5054593;28;20201;-70
2022/07/20 00:39:31;;;;;;;7.55;5.72;;;;;;;24.27;40.90;98048.84;5054937;28;20229;-70
2022/07/20 00:41:58;;;;;;;9.98;6.43;;;;;;;24.24;41.42;98049.47;5054558;28;20296;-70
2022/07/20 00:44:24;;;;;;;9.48;6.13;;;;;;;24.12;41.89;98055.44;5054442;28;20295;-70
2022/07/20 00:46:55;;;;;;;7.75;6.22;;;;;;;24.08;41.94;98050.91;5054398;28;20211;-70
2022/07/20 00:49:21;;;;;;;8.25;5.72;;;;;;;24.06;41.97;98053.91;5053920;28;20746;-70
2022/07/20 00:51:49;;;;;;;9.50;6.00;;;;;;;23.96;42.13;98059.59;5054305;28;20229;-70
2022/07/20 00:54:16;;;;;;;9.23;6.10;;;;;;;23.89;42.12;98059.19;5054224;28;20221;-70
2022/07/20 00:56:43;;;;;;;8.25;5.97;;;;;;;23.75;42.46;98052.94;5054264;28;20303;-70
2022/07/20 00:59:11;;;;;;;9.10;6.18;;;;;;;23.74;42.84;98062.19;5053772;28;20720;-70
2022/07/20 01:01:39;;;;;;;8.07;5.55;;;;;;;23.62;43.89;98052.97;5053948;28;20231;-70
2022/07/20 01:04:06;;;;;;;9.15;5.50;;;;;;;23.54;43.26;98062.63;5054212;28;20201;-70
2022/07/20 01:06:32;;;;;;;10.88;5.70;;;;;;;23.43;43.44;98058.47;5054112;28;20288;-70
2022/07/20 01:08:59;;;;;;;7.32;5.50;;;;;;;23.32;43.80;98059.78;5053936;28;20312;-70
2022/07/20 01:11:25;;;;;;;7.43;5.82;;;;;;;23.23;44.32;98060.78;5053980;28;20201;-70
2022/07/20 01:13:52;;;;;;;9.30;5.55;;;;;;;23.20;44.96;98066.81;5053919;28;20227;-70
2022/07/20 01:16:18;;;;;;;7.10;5.95;;;;;;;23.17;44.24;98056.53;5053942;28;20212;-70
2022/07/20 01:18:45;;;;;;;8.30;5.13;;;;;;;23.21;45.39;98066.53;5053759;28;20229;-70
2022/07/20 01:21:11;;;;;;;8.48;5.60;;;;;;;23.10;44.98;98056.91;5053514;28;20730;-70
2022/07/20 01:23:38;;;;;;;8.00;5.05;;;;;;;23.04;45.23;98066.25;5053802;28;20296;-70
2022/07/20 01:26:04;;;;;;;7.63;5.22;;;;;;;23.03;45.42;98061.94;5053434;28;20209;-70
2022/07/20 01:28:31;;;;;;;7.28;5.47;;;;;;;23.01;45.16;98053.28;5053393;28;20252;-70
2022/07/20 01:30:58;;;;;;;5.95;5.10;;;;;;;23.11;44.82;98060.44;5053710;28;20212;-70
2022/07/20 01:33:25;;;;;;;7.55;5.28;;;;;;;22.88;45.73;98059.47;5054105;28;20228;-70
2022/07/20 01:35:51;;;;;;;9.75;5.38;;;;;;;22.85;45.83;98061.97;5053237;28;20210;-70
2022/07/20 01:38:18;;;;;;;5.88;4.55;;;;;;;22.74;45.83;98060.56;5053140;28;20738;-70
2022/07/20 01:40:44;;;;;;;6.32;5.00;;;;;;;22.91;45.58;98058.88;5053628;28;20209;-70
2022/07/20 01:43:10;;;;;;;7.68;4.53;;;;;;;22.72;45.76;98057.31;5053187;28;20664;-70
2022/07/20 01:45:37;;;;;;;5.87;4.87;;;;;;;22.56;46.50;98058.69;5053178;28;20216;-70
2022/07/20 01:48:04;;;;;;;6.43;4.90;;;;;;;22.51;47.13;98058.75;5053105;28;20766;-70
2022/07/20 01:50:30;;;;;;;6.78;5.18;;;;;;;22.53;46.84;98060.09;5053420;28;20212;-70
2022/07/20 01:52:57;;;;;;;7.72;5.03;;;;;;;22.48;47.68;98054.72;5053297;28;20221;-70
2022/07/20 01:55:23;;;;;;;8.50;4.83;;;;;;;22.43;47.65;98057.47;5053383;28;20220;-70
2022/07/20 01:57:50;;;;;;;5.67;5.07;;;;;;;22.40;47.89;98057.28;5053323;28;20563;-70
2022/07/20 02:00:17;;;;;;;6.22;4.72;;;;;;;22.36;47.94;98064.38;5052967;28;20229;-70
2022/07/20 02:02:43;;;;;;;8.93;4.80;;;;;;;22.44;47.50;98067.25;5056884;28;20200;-70
2022/07/20 02:05:10;;;;;;;5.43;4.53;;;;;;;22.34;47.79;98072.00;5057544;28;20205;-70
2022/07/20 02:07:38;;;;;;;6.80;5.10;;;;;;;22.38;48.05;98064.91;5057721;28;20207;-70
2022/07/20 02:10:07;;;;;;;6.60;5.10;;;;;;;22.38;48.28;98067.59;5057347;28;20235;-70
2022/07/20 02:12:33;;;;;;;6.07;4.72;;;;;;;22.31;48.54;98067.16;5057308;28;20315;-70
2022/07/20 02:15:00;;;;;;;6.00;4.60;;;;;;;22.20;48.35;98063.00;5057002;28;20211;-70
2022/07/20 02:17:26;;;;;;;5.27;4.77;;;;;;;22.21;48.18;98068.09;5057248;28;20300;-70
2022/07/20 02:19:53;;;;;;;6.77;4.70;;;;;;;22.11;48.76;98064.75;5057205;28;20229;-70
2022/07/20 02:22:19;;;;;;;6.63;4.73;;;;;;;21.99;49.17;98062.47;5057201;28;20212;-70
2022/07/20 02:24:45;;;;;;;6.33;4.77;;;;;;;22.05;49.07;98064.00;5057125;28;20212;-70
2022/07/20 02:27:12;;;;;;;6.33;4.90;;;;;;;21.90;49.77;98068.81;5056770;28;20217;-70
2022/07/20 02:29:38;;;;;;;6.80;4.77;;;;;;;21.93;49.58;98065.53;5056640;28;20771;-70
2022/07/20 02:32:05;;;;;;;7.77;4.80;;;;;;;21.93;49.85;98058.22;5056977;28;20292;-70
2022/07/20 02:34:31;;;;;;;7.07;4.77;;;;;;;21.90;49.36;98068.81;5056892;28;20229;-70
2022/07/20 02:36:58;;;;;;;9.27;4.87;;;;;;;21.84;49.48;98080.81;5056576;28;20237;-70
2022/07/20 02:39:24;;;;;;;7.47;4.90;;;;;;;21.96;49.14;98062.22;5056962;28;20236;-70
2022/07/20 02:41:51;;;;;;;6.90;5.07;;;;;;;21.98;49.76;98063.56;5056465;28;20577;-70
2022/07/20 02:44:17;;;;;;;6.67;4.73;;;;;;;21.98;49.03;98060.06;5056725;28;20293;-70
2022/07/20 02:46:44;;;;;;;6.77;4.70;;;;;;;21.97;49.30;98056.53;5056679;28;20209;-70
2022/07/20 02:49:10;;;;;;;13.63;5.10;;;;;;;21.95;49.64;98060.63;5056618;28;20710;-70
2022/07/20 02:51:36;;;;;;;5.70;4.90;;;;;;;21.95;49.75;98056.03;5057393;28;20237;-70
2022/07/20 02:54:03;;;;;;;6.80;5.00;;;;;;;21.94;49.76;98059.03;5056099;28;20217;-70
2022/07/20 02:56:29;;;;;;;9.20;5.57;;;;;;;21.91;49.29;98057.72;5056054;28;20276;-70
2022/07/20 02:58:56;;;;;;;8.83;5.13;;;;;;;21.81;49.69;98059.75;5056143;28;20229;-70
2022/07/20 03:01:22;;;;;;;10.77;4.87;;;;;;;21.77;50.20;98064.94;5056390;28;20196;-70
2022/07/20 03:03:48;;;;;;;15.57;5.30;;;;;;;21.75;49.64;98067.09;5055867;28;20296;-70
2022/07/20 03:06:15;;;;;;;8.03;5.23;;;;;;;21.76;49.78;98070.63;5056124;28;20213;-70
2022/07/20 03:08:42;;;;;;;8.07;5.03;;;;;;;21.67;50.26;98072.34;5055926;28;20229;-70
2022/07/20 03:11:08;;;;;;;8.07;4.87;;;;;;;21.62;49.73;98072.41;5056211;28;20201;-70
2022/07/20 03:13:35;;;;;;;9.10;5.60;;;;;;;21.62;50.47;98072.41;5055503;28;20271;-70
2022/07/20 03:16:01;;;;;;;9.57;5.70;;;;;;;21.59;50.15;98073.78;5055930;28;20231;-70
2022/07/20 03:18:27;;;;;;;9.40;5.63;;;;;;;21.58;50.50;98072.19;5055866;28;20232;-70
2022/07/20 03:20:54;;;;;;;5.73;5.10;;;;;;;21.57;50.73;98070.53;5055730;28;20292;-70
2022/07/20 03:23:20;;;;;;;10.43;5.20;;;;;;;21.59;50.34;98068.38;5055613;28;20295;-70
2022/07/20 03:25:47;;;;;;;8.17;5.30;;;;;;;21.49;50.84;98071.22;5055750;28;20295;-70
2022/07/20 03:28:13;;;;;;;7.10;5.00;;;;;;;21.46;51.28;98074.47;5055323;28;20651;-70
2022/07/20 03:30:39;;;;;;;9.13;5.50;;;;;;;21.43;51.36;98074.25;5055530;28;20216;-70
2022/07/20 03:33:06;;;;;;;9.73;5.27;;;;;;;21.46;51.11;98070.94;5054988;28;20313;-70
2022/07/20 03:35:32;;;;;;;7.03;5.00;;;;;;;21.45;51.16;98072.88;5055161;28;20205;-70
2022/07/20 03:37:59;;;;;;;7.00;5.23;;;;;;;21.26;51.28;98073.91;5054866;28;20212;-70
2022/07/20 03:40:25;;;;;;;7.67;5.57;;;;;;;21.14;51.40;98071.59;5055132;28;20319;-70
2022/07/20 03:42:51;;;;;;;9.67;5.43;;;;;;;21.19;51.78;98076.94;5055434;28;20201;-70
2022/07/20 03:45:18;;;;;;;8.00;5.30;;;;;;;21.13;52.19;98071.88;5055200;28;20293;-70
2022/07/20 03:47:44;;;;;;;8.10;5.20;;;;;;;21.11;52.11;98074.84;5055849;28;20735;-70
2022/07/20 03:50:11;;;;;;;8.77;5.27;;;;;;;21.17;52.44;98071.03;5055199;28;20221;-70
2022/07/20 03:52:37;;;;;;;7.00;5.10;;;;;;;21.19;51.51;98066.13;5055246;28;20209;-70
2022/07/20 03:55:04;;;;;;;7.93;5.40;;;;;;;21.24;51.82;98068.75;5055080;28;20225;-70
2022/07/20 03:57:30;;;;;;;7.83;5.03;;;;;;;21.27;52.17;98068.22;5055055;28;20295;-70
2022/07/20 03:59:57;;;;;;;7.93;4.90;;;;;;;21.22;52.66;98070.16;5054739;28;20240;-70
2022/07/20 04:02:23;;;;;;;7.13;5.20;;;;;;;21.23;52.34;98069.88;5054781;28;20627;-70
2022/07/20 04:04:49;;;;;;;6.97;5.27;;;;;;;21.18;52.81;98064.50;5054772;28;20197;-70
2022/07/20 04:07:16;;;;;;;6.80;5.20;;;;;;;21.20;52.82;98062.31;5055067;28;20212;-70
2022/07/20 04:09:46;;;;;;;6.13;5.40;;;;;;;21.15;53.14;98067.78;5054884;28;20228;-70
2022/07/20 04:12:16;;;;;;;8.23;5.40;;;;;;;21.05;52.87;98072.47;5055407;28;20606;-70
2022/07/20 04:14:44;;;;;;;9.40;5.10;;;;;;;21.11;52.90;98074.06;5054957;28;20227;-70
2022/07/20 04:17:11;;;;;;;7.53;4.80;;;;;;;21.10;53.24;98077.81;5054896;28;20207;-70
2022/07/20 04:19:38;;;;;;;8.00;5.10;;;;;;;21.11;53.34;98077.56;5054689;28;20228;-70
2022/07/20 04:22:04;;;;;;;6.57;5.13;;;;;;;21.13;53.51;98075.38;5054614;28;20300;-70
2022/07/20 04:24:31;;;;;;;9.80;5.40;;;;;;;21.16;53.46;98085.59;5053755;28;20209;-70
2022/07/20 04:26:57;;;;;;;7.43;5.43;;;;;;;21.15;54.01;98077.78;5054201;28;20301;-70
2022/07/20 04:29:24;;;;;;;8.67;5.87;;;;;;;21.22;53.63;98083.66;5054094;28;20887;-70
2022/07/20 04:31:51;;;;;;;7.83;5.33;;;;;;;21.23;54.03;98077.97;5054585;28;20292;-70
2022/07/20 04:34:17;;;;;;;9.30;5.67;;;;;;;21.28;54.18;98082.50;5053962;28;20217;-69
2022/07/20 04:36:44;;;;;;;8.17;6.27;;;;;;;21.25;54.75;98083.88;5054221;28;20288;-70
2022/07/20 04:39:10;;;;;;;11.17;6.13;;;;;;;21.32;54.59;98084.38;5054249;28;20221;-69
2022/07/20 04:41:37;;;;;;;10.97;5.57;;;;;;;21.33;54.95;98088.69;5054281;28;20292;-72
2022/07/20 04:44:03;;;;;;;8.57;5.30;;;;;;;21.44;52.58;98081.28;5053868;28;20569;-69
2022/07/20 04:46:30;;;;;;;6.87;5.20;;;;;;;21.54;52.89;98081.16;5053785;28;20325;-69
2022/07/20 04:48:57;;;;;;;10.20;5.43;;;;;;;21.61;52.36;98087.81;5053801;28;20237;-69
2022/07/20 04:51:24;;;;;;;9.13;5.57;;;;;;;21.72;51.72;98078.53;5053938;28;20211;-69
2022/07/20 04:53:51;;;;;;;6.90;5.30;;;;;;;21.83;51.54;98073.78;5053274;28;20312;-69
2022/07/20 04:56:18;;;;;;;8.77;5.53;;;;;;;21.90;51.37;98082.34;5053324;28;20244;-70
2022/07/20 04:58:47;;;;;;;7.50;4.83;;;;;;;21.95;51.58;98079.59;5053061;28;20324;-69
2022/07/20 05:01:14;;;;;;;9.40;5.80;;;;;;;21.90;51.47;98079.66;5053642;28;20209;-70
2022/07/20 05:03:40;;;;;;;8.47;5.70;;;;;;;21.94;51.05;98076.09;5052720;28;20213;-69
2022/07/20 05:06:07;;;;;;;6.93;5.43;;;;;;;22.06;51.20;98067.53;5052633;28;20639;-69
2022/07/20 05:08:33;;;;;;;7.83;5.57;;;;;;;22.24;50.64;98072.94;5052958;28;20657;-70
2022/07/20 05:11:00;;;;;;;7.83;5.40;;;;;;;22.72;49.96;98073.59;5053007;28;20296;-70
2022/07/20 05:13:26;;;;;;;10.60;5.50;;;;;;;;;;5052942;28;20296;-70
2022/07/20 05:15:52;;;;;;;10.73;4.80;;;;;;;23.73;47.81;98074.16;5052549;28;20237;-70
2022/07/20 05:18:19;;;;;;;6.60;5.30;;;;;;;24.01;47.32;98070.34;5053260;28;20209;-70
2022/07/20 05:20:45;;;;;;;7.25;5.80;;;;;;;24.09;47.31;98068.81;5053080;28;20215;-70
2022/07/20 05:23:11;;;;;;;8.35;5.70;;;;;;;23.99;47.58;98074.47;5052945;28;20209;-70
2022/07/20 05:25:39;;;;;;;12.50;5.80;;;;;;;23.64;48.05;98067.84;5052721;28;20300;-70
2022/07/20 05:28:06;;;;;;;8.18;5.53;;;;;;;23.34;49.29;98073.84;5052673;28;20278;-70
2022/07/20 05:30:33;;;;;;;13.70;5.85;;;;;;;23.53;48.68;98076.47;5052807;28;20312;-69
2022/07/20 05:32:59;;;;;;;11.10;6.07;;;;;;;23.46;48.34;98071.44;5052882;28;20637;-70
2022/07/20 05:35:26;;;;;;;9.43;5.88;;;;;;;23.46;47.92;98076.06;5052119;28;20235;-70
2022/07/20 05:37:52;;;;;;;9.15;5.50;;;;;;;23.53;47.81;98076.47;5052054;28;20291;-70
2022/07/20 05:40:19;;;;;;;10.25;4.80;;;;;;;23.61;47.03;98079.28;5052018;28;20221;-70
2022/07/20 05:42:46;;;;;;;7.30;4.70;;;;;;;23.67;47.08;98086.25;5052274;28;20304;-70
2022/07/20 05:45:12;;;;;;;7.40;4.45;;;;;;;23.74;47.25;98086.63;5052541;28;20211;-70
2022/07/20 05:47:38;;;;;;;8.27;5.15;;;;;;;23.79;46.50;98085.72;5052152;28;20575;-69
2022/07/20 05:50:05;;;;;;;7.57;4.60;;;;;;;23.88;46.31;98084.69;5052563;28;20224;-69
2022/07/20 05:52:32;;;;;;;6.50;4.80;;;;;;;23.85;46.14;98084.50;5052400;28;20213;-69
2022/07/20 05:54:58;;;;;;;9.63;4.60;;;;;;;24.02;46.40;98090.16;5052389;28;20221;-69
2022/07/20 05:57:26;;;;;;;7.70;4.20;;;;;;;24.10;46.17;98087.50;5052339;28;20205;-69
2022/07/20 05:59:52;;;;;;;7.80;4.78;;;;;;;24.13;45.78;98092.34;5052231;28;20278;-69
2022/07/20 06:02:18;;;;;;;8.00;4.47;;;;;;;24.08;46.15;98102.50;5052011;28;20204;-69
2022/07/20 06:04:45;;;;;;;6.18;4.50;;;;;;;24.35;45.02;98105.19;5052300;28;20215;-69
2022/07/20 06:07:11;;;;;;;7.32;4.90;;;;;;;24.44;45.05;98106.06;5052098;28;20694;-69
2022/07/20 06:09:38;;;;;;;5.07;4.10;;;;;;;24.60;44.67;98101.91;5052266;28;20225;-70
2022/07/20 06:12:04;;;;;;;7.50;4.53;;;;;;;24.56;44.75;98103.63;5052340;28;20739;-69
2022/07/20 06:14:31;;;;;;;6.85;4.60;;;;;;;24.30;45.42;98108.81;5052387;28;20227;-70
2022/07/20 06:16:57;;;;;;;8.82;4.45;;;;;;;24.65;44.65;98115.41;5052794;28;20209;-69
2022/07/20 06:19:24;;;;;;;8.15;4.82;;;;;;;24.61;44.44;98109.75;5052367;28;20313;-69
2022/07/20 06:21:50;;;;;;;6.38;4.22;;;;;;;24.48;44.92;98109.78;5052326;28;20291;-69
2022/07/20 06:24:16;;;;;;;6.70;5.10;;;;;;;24.80;44.47;98104.97;5052246;28;20296;-69
2022/07/20 06:26:43;;;;;;;9.57;4.72;;;;;;;24.80;44.27;98106.88;5052302;28;20205;-70
2022/07/20 06:29:09;;;;;;;8.35;4.78;;;;;;;24.75;44.66;98121.41;5051965;28;20712;-70
2022/07/20 06:31:36;;;;;;;9.43;5.40;;;;;;;24.82;44.45;98131.81;5051726;28;20575;-70
2022/07/20 06:34:04;;;;;;;6.15;4.97;;;;;;;24.88;44.57;98136.03;5052102;28;20311;-70
2022/07/20 06:36:30;;;;;;;10.48;4.75;;;;;;;24.83;44.48;98133.44;5051863;28;20255;-70
2022/07/20 06:38:57;;;;;;;9.48;4.97;;;;;;;24.76;44.70;98117.56;5051949;28;20229;-70
2022/07/20 06:41:23;;;;;;;10.85;5.45;;;;;;;24.90;44.71;98123.75;5052204;28;20209;-70
2022/07/20 06:43:50;;;;;;;8.70;5.47;;;;;;;25.05;44.45;98114.41;5052257;28;20649;-70
2022/07/20 06:46:16;;;;;;;10.55;5.28;;;;;;;25.07;44.25;98120.34;5052260;28;20296;-70
2022/07/20 06:48:42;;;;;;;10.27;5.47;;;;;;;25.06;44.36;98130.41;5055335;28;20317;-70
2022/07/20 06:51:09;;;;;;;15.93;5.55;;;;;;;25.15;44.50;98130.47;5055526;28;20260;-70
2022/07/20 06:53:35;;;;;;;9.60;5.28;;;;;;;25.38;43.75;98121.19;5055819;28;20212;-70
2022/07/20 06:56:02;;;;;;;9.82;5.78;;;;;;;25.36;44.03;98126.94;5055556;28;20264;-70
2022/07/20 06:58:28;;;;;;;7.00;5.22;;;;;;;25.46;44.00;98134.84;5055126;28;20229;-70
2022/07/20 07:00:55;;;;;;;9.95;5.70;;;;;;;25.56;43.93;98131.06;5055709;28;20280;-70
2022/07/20 07:03:21;;;;;;;8.98;5.57;;;;;;;25.55;43.61;98132.97;5055452;28;20202;-70
2022/07/20 07:05:47;;;;;;;11.45;5.80;;;;;;;25.71;43.48;98127.91;5055304;28;20637;-70
2022/07/20 07:08:14;;;;;;;8.73;5.82;;;;;;;25.67;43.03;98132.38;5055349;28;20296;-70
2022/07/20 07:10:40;;;;;;;7.53;5.50;;;;;;;25.87;43.07;98126.38;5055270;28;20205;-70
2022/07/20 07:13:07;;;;;;;8.57;6.30;;;;;;;25.93;42.99;98131.41;5054931;28;20296;-70
2022/07/20 07:15:33;;;;;;;11.93;6.18;;;;;;;26.01;42.58;98138.78;5056046;28;20227;-70
2022/07/20 07:17:59;;;;;;;9.05;5.55;;;;;;;26.04;42.79;98143.59;5054865;28;20206;-70
2022/07/20 07:20:26;;;;;;;11.07;5.60;;;;;;;26.18;42.69;98138.00;5055115;28;20251;-70
2022/07/20 07:22:52;;;;;;;10.70;6.18;;;;;;;26.34;41.57;98142.72;5055078;28;20205;-70
2022/07/20 07:25:19;;;;;;;10.68;5.72;;;;;;;26.46;41.63;98131.19;5055110;28;20197;-70
2022/07/20 07:27:45;;;;;;;7.82;6.10;;;;;;;26.66;42.12;98117.75;5054787;28;20649;-70
2022/07/20 07:30:12;;;;;;;9.90;5.82;;;;;;;26.91;40.88;98121.59;5055196;28;20225;-70
2022/07/20 07:32:38;;;;;;;8.50;6.28;;;;;;;27.12;40.74;98111.59;5055483;28;20296;-70
2022/07/20 07:35:05;;;;;;;12.77;5.68;;;;;;;27.27;40.40;98116.59;5055259;28;20221;-70
2022/07/20 07:37:32;;;;;;;9.88;5.97;;;;;;;27.34;40.18;98111.41;5055221;28;20205;-70
2022/07/20 07:39:58;;;;;;;12.18;6.13;;;;;;;27.34;40.80;98102.41;5055170;28;20229;-70
2022/07/20 07:42:25;;;;;;;9.90;5.78;;;;;;;27.41;40.33;98111.72;5055467;28;20207;-70
2022/07/20 07:44:51;;;;;;;10.20;5.95;;;;;;;27.55;39.66;98112.31;5055235;28;20212;-70
2022/07/20 07:47:18;;;;;;;10.88;6.35;;;;;;;27.73;39.47;98102.13;5054730;28;20209;-70
2022/07/20 07:49:44;;;;;;;12.10;6.63;;;;;;;27.77;39.87;98112.06;5055063;28;20316;-70
2022/07/20 07:52:11;;;;;;;10.27;6.60;;;;;;;27.63;39.73;98113.41;5054799;28;20287;-70
2022/07/20 07:54:37;;;;;;;10.55;6.50;;;;;;;27.54;39.83;98113.44;5054836;28;20225;-70
2022/07/20 07:57:03;;;;;;;13.57;6.78;;;;;;;27.64;39.21;98102.16;5054919;28;20292;-70
2022/07/20 07:59:30;;;;;;;15.02;6.80;;;;;;;28.01;39.09;98104.09;5053568;28;20315;-70
2022/07/20 08:01:57;;;;;;;11.10;6.45;;;;;;;28.04;38.19;98108.91;5055023;28;20213;-70
2022/07/20 08:04:23;;;;;;;16.60;6.38;;;;;;;28.14;38.73;98108.53;5054477;28;20202;-70
2022/07/20 08:06:50;;;;;;;10.52;6.20;;;;;;;28.45;38.68;98102.72;5054439;28;20705;-70
2022/07/20 08:09:17;;;;;;;19.00;7.75;;;;;;;28.72;37.98;98108.47;5054594;28;20229;-70
2022/07/20 08:11:43;;;;;;;19.23;7.68;;;;;;;28.62;38.20;98097.13;5054646;28;20216;-70
2022/07/20 08:14:10;;;;;;;13.70;6.93;;;;;;;28.64;38.23;98101.13;5054029;28;20763;-70
2022/07/20 08:16:36;;;;;;;13.57;6.32;;;;;;;28.81;38.22;98100.97;5054453;28;20318;-70
2022/07/20 08:19:02;;;;;;;12.00;6.55;;;;;;;28.94;37.41;98104.56;5054568;28;20320;-70
2022/07/20 08:21:29;;;;;;;10.95;6.22;;;;;;;29.11;37.16;98102.47;5054813;28;20205;-70
2022/07/20 08:23:55;;;;;;;9.75;5.88;;;;;;;29.14;37.09;98099.06;5054168;28;20634;-70
2022/07/20 08:26:23;;;;;;;8.23;6.28;;;;;;;29.44;36.64;98099.72;5053968;28;20673;-70
2022/07/20 08:28:49;;;;;;;9.23;6.00;;;;;;;29.28;36.18;98106.97;5053663;28;20313;-70
2022/07/20 08:31:16;;;;;;;8.25;6.32;;;;;;;29.31;36.73;98100.81;5054237;28;20201;-70
2022/07/20 08:33:42;;;;;;;8.07;6.00;;;;;;;29.33;37.49;98104.00;5054266;28;20283;-70
2022/07/20 08:36:09;;;;;;;6.85;6.13;;;;;;;29.47;36.06;98107.22;5054296;28;20232;-70
2022/07/20 08:38:35;;;;;;;11.98;6.03;;;;;;;29.64;36.53;98113.38;5054117;28;20233;-70
2022/07/20 08:41:03;;;;;;;10.45;6.70;;;;;;;29.85;36.22;98110.53;5053779;28;20732;-70
2022/07/20 08:43:29;;;;;;;8.15;6.28;;;;;;;30.04;35.44;98110.75;5053529;28;20695;-70
2022/07/20 08:45:56;;;;;;;11.60;6.03;;;;;;;30.08;34.89;98106.97;5053207;28;20695;-70
2022/07/20 08:48:23;;;;;;;13.95;6.35;;;;;;;30.28;34.95;98110.75;5053788;28;20312;-70
2022/07/20 08:50:49;;;;;;;8.20;6.38;;;;;;;30.27;35.25;98109.97;5051939;28;20201;-70
2022/07/20 08:53:18;;;;;;;13.15;6.38;;;;;;;30.39;34.47;98107.19;5053931;28;20211;-70
2022/07/20 08:55:44;;;;;;;13.77;6.78;;;;;;;30.27;35.01;98115.44;5052722;28;20217;-70
2022/07/20 08:58:12;;;;;;;10.95;6.30;;;;;;;30.16;34.40;98119.00;5053288;28;20211;-70
2022/07/20 09:00:39;;;;;;;10.60;5.80;;;;;;;30.15;35.39;98114.63;5053164;28;20323;-70
2022/07/20 09:03:08;;;;;;;11.50;6.18;;;;;;;30.10;34.42;98117.59;5053542;28;20232;-70
2022/07/20 09:05:37;;;;;;;9.32;6.20;;;;;;;30.14;34.39;98121.28;5053496;28;20295;-70
2022/07/20 09:08:05;;;;;;;13.60;6.70;;;;;;;30.64;33.31;98119.72;5053055;28;20239;-70
2022/07/20 09:10:37;;;;;;;8.75;6.10;;;;;;;30.92;32.94;98114.25;5053767;28;20216;-70
2022/07/20 09:13:08;;;;;;;9.73;6.38;;;;;;;30.71;32.94;98122.69;5053160;28;20292;-70
2022/07/20 09:15:52;;;;;;;7.57;5.90;;;;;;;30.40;32.75;98127.19;5052960;28;20352;-70
2022/07/20 09:18:24;;;;;;;13.07;6.40;;;;;;;30.61;33.56;98120.41;5052923;28;20695;-70
2022/07/20 09:21:00;;;;;;;9.82;6.03;;;;;;;31.09;31.96;98119.44;5053718;28;20200;-70
2022/07/20 09:23:29;;;;;;;9.68;6.15;;;;;;;31.43;32.33;98108.66;5053017;28;20193;-70
2022/07/20 09:26:05;;;;;;;7.47;5.80;;;;;;;31.51;31.84;98109.63;5053326;28;20229;-70
2022/07/20 09:28:37;;;;;;;12.82;6.93;;;;;;;31.23;30.58;98115.19;5052463;28;20765;-71
2022/07/20 09:31:30;;;;;;;9.52;6.07;;;;;;;31.46;30.74;98107.13;5053021;28;20209;-70
2022/07/20 09:34:17;;;;;;;9.30;6.13;;;;;;;31.71;30.10;98114.09;5053297;28;20190;-70
2022/07/20 09:36:46;;;;;;;6.63;5.00;;;;;;;32.14;27.07;98111.22;5054013;28;20213;-70
2022/07/20 09:39:21;;;;;;;7.38;4.88;;;;;;;31.99;26.89;98115.63;5052856;28;20316;-70
2022/07/20 09:41:56;;;;;;;6.35;4.53;;;;;;;32.57;27.17;98119.34;5052768;28;20228;-70
2022/07/20 09:44:30;;;;;;;10.30;5.47;;;;;;;32.79;25.91;98115.91;5053030;28;20290;-70
2022/07/20 09:46:58;;;;;;;8.45;5.45;;;;;;;32.75;26.25;98115.78;5052812;28;20203;-70
2022/07/20 09:49:34;;;;;;;6.70;5.13;;;;;;;32.28;26.78;98117.09;5052802;28;20320;-70
2022/07/20 09:52:02;;;;;;;6.43;4.50;;;;;;;32.53;26.92;98112.97;5053001;28;20189;-70
2022/07/20 09:54:29;;;;;;;8.63;5.63;;;;;;;32.43;27.36;98114.31;5052906;28;20205;-70
2022/07/20 09:56:56;;;;;;;8.50;5.22;;;;;;;32.45;26.68;98113.94;5052746;28;20264;-70
2022/07/20 09:59:22;;;;;;;8.35;5.18;;;;;;;32.92;26.90;98112.66;5052446;28;20264;-70
2022/07/20 10:01:53;;;;;;;6.32;4.97;;;;;;;32.65;26.59;98113.63;5052814;28;20206;-70
2022/07/20 10:04:21;;;;;;;6.78;4.78;;;;;;;32.80;27.29;98099.03;5052861;28;20284;-70
2022/07/20 10:06:50;;;;;;;7.88;5.75;;;;;;;33.06;26.57;98103.88;5052764;28;20209;-70
2022/07/20 10:09:17;;;;;;;14.93;5.70;;;;;;;32.88;27.16;98105.47;5052568;28;20221;-70
2022/07/20 10:11:45;;;;;;;16.23;6.40;;;;;;;33.37;26.52;98101.75;5052793;28;20296;-70
2022/07/20 10:14:13;;;;;;;8.25;5.28;;;;;;;33.50;26.08;98097.66;5052523;28;20296;-70
2022/07/20 10:16:43;;;;;;;13.45;6.22;;;;;;;33.61;26.57;98100.59;5053252;28;20319;-70
2022/07/20 10:19:10;;;;;;;8.55;4.88;;;;;;;33.67;26.51;98101.09;5052409;28;20225;-70
2022/07/20 10:21:47;;;;;;;7.93;5.20;;;;;;;33.17;26.25;98094.66;5051757;28;20209;-70
2022/07/20 10:24:17;;;;;;;7.80;4.90;;;;;;;32.84;27.55;98094.38;5057695;28;20212;-70
2022/07/20 10:26:45;;;;;;;8.10;4.68;;;;;;;33.11;27.24;98098.84;5056697;28;20288;-70
2022/07/20 10:29:25;;;;;;;5.00;4.55;;;;;;;33.50;26.28;98105.94;5056294;28;20688;-70
2022/07/20 10:31:54;;;;;;;5.93;5.10;;;;;;;33.42;26.60;98095.94;5056338;28;20189;-70
2022/07/20 10:34:41;;;;;;;7.22;4.60;;;;;;;33.39;26.99;98095.88;5055895;28;20216;-70
2022/07/20 10:37:28;;;;;;;9.45;5.07;;;;;;;33.88;26.22;98102.28;5056051;28;20224;-70
2022/07/20 10:40:06;;;;;;;7.28;5.10;;;;;;;34.08;25.43;98111.28;5055969;28;20269;-70
2022/07/20 10:42:46;;;;;;;7.70;4.30;;;;;;;34.01;25.23;98103.69;5055842;28;20291;-70
2022/07/20 10:45:19;;;;;;;10.60;4.80;;;;;;;33.84;26.41;98103.38;5055921;28;20299;-70
2022/07/20 10:47:49;;;;;;;7.82;5.30;;;;;;;34.01;26.99;98111.16;5055817;28;20288;-70
2022/07/20 10:50:22;;;;;;;15.27;6.10;;;;;;;33.79;26.69;98101.69;5055910;28;20221;-70
2022/07/20 10:52:53;;;;;;;9.18;5.30;;;;;;;33.99;26.21;98107.97;5056174;28;20190;-70
2022/07/20 10:55:34;;;;;;;10.70;5.13;;;;;;;33.95;25.62;98102.38;5057088;28;20267;-70
2022/07/20 10:58:25;;;;;;;9.77;5.28;;;;;;;33.99;25.67;98107.97;5055719;28;20205;-70
2022/07/20 11:00:54;;;;;;;15.00;5.30;;;;;;;33.90;25.43;98101.91;5055393;28;20186;-70
2022/07/20 11:03:36;;;;;;;9.18;5.03;;;;;;;33.96;25.27;98100.44;5056022;28;20209;-70
2022/07/20 11:06:05;;;;;;;7.05;4.45;;;;;;;34.12;25.35;98107.38;5055867;28;20186;-70
2022/07/20 11:08:31;;;;;;;6.60;5.25;;;;;;;34.05;25.97;98107.28;5055961;28;20221;-70
2022/07/20 11:10:58;;;;;;;8.57;5.45;;;;;;;33.85;25.83;98105.75;5056023;28;20202;-70
2022/07/20 11:13:25;;;;;;;6.20;5.28;;;;;;;34.04;26.86;98102.13;5055798;28;20287;-70
2022/07/20 11:15:54;;;;;;;7.10;5.38;;;;;;;33.83;26.52;98099.03;5055376;28;20699;-70
2022/07/20 11:18:26;;;;;;;7.03;5.15;;;;;;;34.04;26.69;98104.91;5055776;28;20232;-70
2022/07/20 11:20:59;;;;;;;7.63;5.00;;;;;;;33.44;27.23;98104.66;5055373;28;20205;-70
2022/07/20 11:23:39;;;;;;;6.30;5.03;;;;;;;33.61;28.08;98095.88;5055786;28;20200;-70
2022/07/20 11:26:07;;;;;;;6.95;4.70;;;;;;;33.84;27.21;98092.34;5054881;28;20272;-70
2022/07/20 11:28:37;;;;;;;6.07;5.50;;;;;;;34.00;26.69;98096.53;5055367;28;20232;-70
2022/07/20 11:31:05;;;;;;;6.03;5.43;;;;;;;33.47;26.95;98089.34;5055350;28;20190;-70
2022/07/20 11:33:34;;;;;;;6.03;5.30;;;;;;;33.39;27.48;98080.16;5055094;28;20680;-70
2022/07/20 11:36:22;;;;;;;8.00;5.57;;;;;;;33.69;27.13;98089.31;5055233;28;20308;-70